EmailTwitter


Surface observations / France / LFBO (07630)

Regions: Quebec | Canada | USA | Europe | France | UK | Elsewhere
Station
Display
Info & Location for LFBO (07630) | Help decoding METAR

Weather Conditions observed on 2019/09/22 at 22:30 UTC at TOULOUSE/BLAGNAC, FR (LFBO)

Temperature: 15.0 Celsius.

Dewpoint: 14.0 Celsius.

Relative Humidity: 94%

Winds: Southwest at 9 km/h or 5 knots.

Mean Sea level Pressure: 101.80 kilopascals.

Coded METAR:

LFBO 222230Z AUTO 22005KT CAVOK 15/14 Q1018 NOSIG=